createdAt,value
2019-05-20T00:02:23.554Z,12.80
2019-05-20T00:05:07.594Z,12.80
2019-05-20T00:07:57.829Z,12.70
2019-05-20T00:10:48.093Z,12.70
2019-05-20T00:13:37.767Z,12.70
2019-05-20T00:16:27.401Z,12.60
2019-05-20T00:19:16.954Z,12.60
2019-05-20T00:22:06.821Z,12.60
2019-05-20T00:24:57.026Z,12.60
2019-05-20T00:27:47.134Z,12.50
2019-05-20T00:30:36.927Z,12.50
2019-05-20T00:33:26.928Z,12.50
2019-05-20T00:36:16.452Z,12.60
2019-05-20T00:39:32.022Z,12.60
2019-05-20T00:42:22.197Z,12.60
2019-05-20T00:45:13.076Z,12.70
2019-05-20T00:48:03.866Z,12.70
2019-05-20T00:50:53.602Z,12.70
2019-05-20T00:53:43.523Z,12.70
2019-05-20T00:56:33.337Z,12.80
2019-05-20T00:59:23.125Z,12.80
2019-05-20T01:02:12.701Z,12.80
2019-05-20T01:05:02.793Z,12.80
2019-05-20T01:07:52.797Z,12.80
2019-05-20T01:10:43.682Z,12.80
2019-05-20T01:13:33.921Z,12.80
2019-05-20T01:16:23.537Z,12.80
2019-05-20T01:19:13.260Z,12.80
2019-05-20T01:22:03.587Z,12.80
2019-05-20T01:24:54.142Z,12.80
2019-05-20T01:27:43.777Z,12.90
2019-05-20T01:30:33.433Z,12.90
2019-05-20T01:33:23.122Z,12.90
2019-05-20T01:36:12.770Z,12.90
2019-05-20T01:39:02.379Z,12.90
2019-05-20T01:41:52.801Z,12.90
2019-05-20T01:44:42.202Z,12.90
2019-05-20T01:47:32.399Z,12.90
2019-05-20T01:50:22.822Z,12.90
2019-05-20T01:53:12.797Z,12.90
2019-05-20T01:56:02.708Z,12.90
2019-05-20T01:58:52.942Z,13.00
2019-05-20T02:01:54.561Z,13.00
2019-05-20T02:04:44.871Z,13.00
2019-05-20T02:07:34.176Z,13.10
2019-05-20T02:10:24.072Z,13.10
2019-05-20T02:13:15.586Z,13.10
2019-05-20T02:16:07.521Z,13.10
2019-05-20T02:18:57.455Z,13.10
2019-05-20T02:21:47.586Z,13.10
2019-05-20T02:24:37.297Z,13.10
2019-05-20T02:27:26.637Z,13.10
2019-05-20T02:30:16.507Z,13.10
2019-05-20T02:33:06.967Z,13.10
2019-05-20T02:35:57.859Z,13.10
2019-05-20T02:38:47.565Z,13.10
2019-05-20T02:41:37.662Z,13.10
2019-05-20T02:44:27.780Z,13.10
2019-05-20T02:47:17.835Z,13.10
2019-05-20T02:50:08.156Z,13.00
2019-05-20T02:52:59.054Z,13.00
2019-05-20T02:55:49.278Z,13.00
2019-05-20T02:58:39.431Z,13.00
2019-05-20T03:01:29.176Z,13.00
2019-05-20T03:04:19.373Z,13.00
2019-05-20T03:07:10.272Z,13.00
2019-05-20T03:10:00.072Z,13.00
2019-05-20T03:12:51.346Z,13.00
2019-05-20T03:15:40.982Z,13.00
2019-05-20T03:18:30.282Z,13.00
2019-05-20T03:21:19.749Z,13.00
2019-05-20T03:24:09.387Z,13.00
2019-05-20T03:26:58.882Z,13.00
2019-05-20T03:29:48.818Z,13.00
2019-05-20T03:32:38.902Z,13.00
2019-05-20T03:35:29.985Z,13.00
2019-05-20T03:38:20.446Z,13.00
2019-05-20T03:41:11.115Z,13.00
2019-05-20T03:44:00.294Z,13.00
2019-05-20T03:46:49.876Z,13.00
2019-05-20T03:49:39.157Z,13.00
2019-05-20T03:52:29.004Z,13.00
2019-05-20T03:55:19.166Z,13.00
2019-05-20T03:58:13.341Z,13.00
2019-05-20T04:01:02.465Z,13.00
2019-05-20T04:03:52.752Z,13.00
2019-05-20T04:06:42.421Z,13.00
2019-05-20T04:09:32.656Z,13.00
2019-05-20T04:12:22.917Z,13.00
2019-05-20T04:15:12.292Z,13.00
2019-05-20T04:18:02.637Z,13.10
2019-05-20T04:20:52.975Z,13.00
2019-05-20T04:23:42.947Z,13.00
2019-05-20T04:26:32.957Z,13.00
2019-05-20T04:29:24.321Z,13.00
2019-05-20T04:32:14.143Z,13.00
2019-05-20T04:35:20.770Z,13.00
2019-05-20T04:37:55.236Z,13.00
2019-05-20T04:40:44.642Z,13.00
2019-05-20T04:43:35.304Z,13.00
2019-05-20T04:46:26.626Z,13.00
2019-05-20T04:49:16.395Z,13.00
2019-05-20T04:52:06.196Z,13.00
2019-05-20T04:54:56.253Z,13.00
2019-05-20T04:57:45.973Z,13.00
2019-05-20T05:00:56.389Z,13.10
2019-05-20T05:03:46.331Z,13.10
2019-05-20T05:06:35.906Z,13.10
2019-05-20T05:09:25.967Z,13.10
2019-05-20T05:12:15.756Z,13.10
2019-05-20T05:15:08.038Z,13.10
2019-05-20T05:17:58.145Z,13.10
2019-05-20T05:20:48.815Z,13.10
2019-05-20T05:23:38.776Z,13.10
2019-05-20T05:26:28.181Z,13.10
2019-05-20T05:29:17.951Z,13.10
2019-05-20T05:32:08.060Z,13.10
2019-05-20T05:34:57.801Z,13.10
2019-05-20T05:37:48.218Z,13.10
2019-05-20T05:40:38.980Z,13.10
2019-05-20T05:43:28.813Z,13.10
2019-05-20T05:46:18.643Z,13.20
2019-05-20T05:49:08.297Z,13.30
2019-05-20T05:51:58.175Z,13.30
2019-05-20T05:54:48.000Z,13.40
2019-05-20T05:57:38.521Z,13.50
2019-05-20T06:00:27.890Z,13.60
2019-05-20T06:03:17.646Z,13.60
2019-05-20T06:06:12.771Z,13.70
2019-05-20T06:08:58.963Z,13.70
2019-05-20T06:11:48.713Z,13.80
2019-05-20T06:14:39.022Z,13.90
2019-05-20T06:17:29.030Z,13.90
2019-05-20T06:20:20.624Z,13.90
2019-05-20T06:23:10.201Z,13.90
2019-05-20T06:26:00.080Z,14.00
2019-05-20T06:28:49.758Z,14.00
2019-05-20T06:31:39.232Z,14.10
2019-05-20T06:34:29.822Z,14.20
2019-05-20T06:37:21.144Z,14.30
2019-05-20T06:40:10.962Z,14.40
2019-05-20T06:43:01.403Z,14.50
2019-05-20T06:45:51.346Z,14.50
2019-05-20T06:48:41.541Z,14.60
2019-05-20T06:51:31.418Z,14.70
2019-05-20T06:54:21.826Z,14.80
2019-05-20T06:57:11.409Z,15.00
2019-05-20T07:00:01.671Z,15.20
2019-05-20T07:02:52.212Z,15.30
2019-05-20T07:05:42.517Z,15.50
2019-05-20T07:08:32.008Z,15.70
2019-05-20T07:11:21.575Z,15.90
2019-05-20T07:14:11.026Z,16.10
2019-05-20T07:17:01.625Z,16.40
2019-05-20T07:19:52.426Z,16.70
2019-05-20T07:22:55.360Z,17.10
2019-05-20T07:25:33.291Z,17.40
2019-05-20T07:28:23.546Z,17.60
2019-05-20T07:31:13.160Z,17.80
2019-05-20T07:34:03.285Z,18.20
2019-05-20T07:37:02.486Z,18.50
2019-05-20T07:39:45.021Z,18.70
2019-05-20T07:42:34.459Z,18.80
2019-05-20T07:45:24.886Z,18.60
2019-05-20T07:48:15.424Z,18.50
2019-05-20T07:51:05.355Z,18.50
2019-05-20T07:53:56.872Z,18.90
2019-05-20T07:56:48.778Z,19.30
2019-05-20T07:59:40.627Z,19.40
2019-05-20T08:02:30.941Z,19.20
2019-05-20T08:05:20.795Z,19.00
2019-05-20T08:08:11.196Z,18.90
2019-05-20T08:11:00.927Z,18.90
2019-05-20T08:13:51.103Z,19.10
2019-05-20T08:16:40.707Z,19.20
2019-05-20T08:19:31.262Z,19.30
2019-05-20T08:22:20.881Z,19.50
2019-05-20T08:25:14.065Z,19.70
2019-05-20T08:28:03.470Z,20.00
2019-05-20T08:30:53.255Z,20.10
2019-05-20T08:33:42.957Z,20.30
2019-05-20T08:36:32.836Z,20.40
2019-05-20T08:39:22.808Z,20.60
2019-05-20T08:42:12.540Z,20.70
2019-05-20T08:45:02.456Z,20.80
2019-05-20T08:47:54.402Z,21.10
2019-05-20T08:50:44.256Z,21.40
2019-05-20T08:53:33.827Z,21.50
2019-05-20T08:56:23.751Z,21.80
2019-05-20T08:59:13.100Z,22.10
2019-05-20T09:02:02.762Z,22.10
2019-05-20T09:04:54.549Z,22.20
2019-05-20T09:08:01.078Z,22.30
2019-05-20T09:10:39.412Z,22.80
2019-05-20T09:13:28.150Z,23.80
2019-05-20T09:16:17.797Z,24.50
2019-05-20T09:19:07.586Z,25.20
2019-05-20T09:21:58.781Z,26.00
2019-05-20T09:24:48.727Z,26.40
2019-05-20T09:27:38.626Z,26.50
2019-05-20T09:30:28.331Z,26.50
2019-05-20T09:33:18.505Z,26.70
2019-05-20T09:36:08.829Z,26.60
2019-05-20T09:38:59.260Z,26.50
2019-05-20T09:41:48.792Z,26.60
2019-05-20T09:44:38.296Z,26.50
2019-05-20T09:47:28.069Z,26.60
2019-05-20T09:50:18.951Z,27.00
2019-05-20T09:53:09.578Z,27.80
2019-05-20T09:56:00.977Z,28.80
2019-05-20T09:58:50.908Z,30.00
2019-05-20T10:01:40.772Z,31.40
2019-05-20T10:04:30.674Z,32.20
2019-05-20T10:07:20.497Z,33.00
2019-05-20T10:10:10.711Z,32.40
2019-05-20T10:13:00.642Z,32.40
2019-05-20T10:15:50.319Z,32.20
2019-05-20T10:18:40.386Z,31.30
2019-05-20T10:21:30.296Z,30.20
2019-05-20T10:24:19.967Z,29.30
2019-05-20T10:27:10.157Z,28.90
2019-05-20T10:29:59.526Z,28.90
2019-05-20T10:32:49.446Z,28.80
2019-05-20T10:35:39.371Z,29.60
2019-05-20T10:38:29.347Z,31.30
2019-05-20T10:41:18.901Z,32.90
2019-05-20T10:44:09.477Z,33.00
2019-05-20T10:46:59.302Z,33.30
2019-05-20T10:49:49.947Z,34.30
2019-05-20T10:52:40.144Z,35.40
2019-05-20T10:55:30.468Z,35.30
2019-05-20T10:58:20.361Z,34.90
2019-05-20T11:01:10.178Z,33.30
2019-05-20T11:04:00.386Z,31.10
2019-05-20T11:06:50.363Z,29.30
2019-05-20T11:09:39.996Z,28.60
2019-05-20T11:12:29.956Z,28.00
2019-05-20T11:15:20.391Z,28.30
2019-05-20T11:18:10.805Z,29.00
2019-05-20T11:21:00.956Z,28.80
2019-05-20T11:23:50.562Z,27.90
2019-05-20T11:26:40.243Z,26.80
2019-05-20T11:29:30.141Z,26.20
2019-05-20T11:32:20.366Z,25.90
2019-05-20T11:35:11.177Z,25.60
2019-05-20T11:38:02.021Z,26.00
2019-05-20T11:40:52.307Z,27.10
2019-05-20T11:43:41.702Z,28.50
2019-05-20T11:46:31.141Z,29.00
2019-05-20T11:49:21.350Z,29.50
2019-05-20T11:52:11.458Z,30.80
2019-05-20T11:55:01.456Z,31.60
2019-05-20T11:57:51.511Z,31.80
2019-05-20T12:00:41.480Z,31.30
2019-05-20T12:03:32.861Z,30.00
2019-05-20T12:06:23.311Z,28.90
2019-05-20T12:09:14.076Z,28.40
2019-05-20T12:12:03.909Z,27.90
2019-05-20T12:14:53.631Z,27.20
2019-05-20T12:17:43.289Z,26.50
2019-05-20T12:20:33.170Z,25.50
2019-05-20T12:23:23.093Z,24.70
2019-05-20T12:26:13.187Z,24.00
2019-05-20T12:29:04.156Z,23.30
2019-05-20T12:31:54.300Z,22.60
2019-05-20T12:34:44.449Z,22.00
2019-05-20T12:37:35.106Z,21.70
2019-05-20T12:40:25.342Z,21.60
2019-05-20T12:43:15.266Z,21.90
2019-05-20T12:46:07.110Z,22.30
2019-05-20T12:48:58.010Z,22.80
2019-05-20T12:51:47.934Z,23.20
2019-05-20T12:54:38.477Z,24.20
2019-05-20T12:57:28.738Z,25.30
2019-05-20T13:00:19.914Z,25.30
2019-05-20T13:03:10.436Z,24.90
2019-05-20T13:06:00.562Z,24.20
2019-05-20T13:08:51.036Z,23.50
2019-05-20T13:11:40.866Z,23.00
2019-05-20T13:14:32.852Z,22.40
2019-05-20T13:17:22.973Z,21.80
2019-05-20T13:20:12.859Z,21.40
2019-05-20T13:23:04.539Z,21.10
2019-05-20T13:25:53.706Z,20.70
2019-05-20T13:28:44.571Z,20.40
2019-05-20T13:31:34.817Z,20.10
2019-05-20T13:34:24.988Z,19.80
2019-05-20T13:37:15.125Z,19.40
2019-05-20T13:40:04.637Z,18.90
2019-05-20T13:42:56.066Z,18.60
2019-05-20T13:45:48.767Z,18.40
2019-05-20T13:48:39.996Z,18.40
2019-05-20T13:51:29.788Z,18.50
2019-05-20T13:54:19.666Z,18.80
2019-05-20T13:57:12.935Z,19.10
2019-05-20T14:00:01.137Z,19.60
2019-05-20T14:02:51.905Z,20.30
2019-05-20T14:05:41.723Z,21.00
2019-05-20T14:08:32.195Z,21.90
2019-05-20T14:11:33.841Z,22.90
2019-05-20T14:14:14.333Z,23.50
2019-05-20T14:17:04.061Z,23.80
2019-05-20T14:19:54.751Z,23.90
2019-05-20T14:22:44.581Z,24.10
2019-05-20T14:25:34.463Z,24.10
2019-05-20T14:28:25.353Z,24.10
2019-05-20T14:31:14.718Z,24.10
2019-05-20T14:34:07.441Z,24.10
2019-05-20T14:36:58.038Z,24.30
2019-05-20T14:39:48.073Z,24.50
2019-05-20T14:42:39.761Z,25.10
2019-05-20T14:45:30.000Z,25.70
2019-05-20T14:48:20.220Z,26.30
2019-05-20T14:51:10.942Z,26.40
2019-05-20T14:54:00.798Z,26.20
2019-05-20T14:56:50.800Z,26.10
2019-05-20T14:59:40.361Z,26.00
2019-05-20T15:02:31.264Z,25.90
2019-05-20T15:05:22.706Z,26.20
2019-05-20T15:08:13.184Z,26.80
2019-05-20T15:11:03.306Z,27.40
2019-05-20T15:13:54.741Z,28.00
2019-05-20T15:16:44.715Z,28.10
2019-05-20T15:19:34.066Z,28.10
2019-05-20T15:22:23.542Z,27.80
2019-05-20T15:25:13.637Z,27.30
2019-05-20T15:28:03.400Z,27.10
2019-05-20T15:30:53.382Z,27.00
2019-05-20T15:33:43.456Z,26.90
2019-05-20T15:36:33.695Z,26.70
2019-05-20T15:39:27.038Z,26.90
2019-05-20T15:42:16.966Z,27.10
2019-05-20T15:45:07.594Z,27.30
2019-05-20T15:47:58.354Z,26.80
2019-05-20T15:50:47.986Z,26.80
2019-05-20T15:53:38.027Z,26.80
2019-05-20T15:56:27.935Z,26.70
2019-05-20T15:59:17.947Z,26.30
2019-05-20T16:02:08.422Z,25.90
2019-05-20T16:04:58.861Z,25.60
2019-05-20T16:07:49.166Z,25.10
2019-05-20T16:10:40.070Z,24.50
2019-05-20T16:13:31.596Z,24.00
2019-05-20T16:16:21.091Z,23.90
2019-05-20T16:19:10.786Z,23.90
2019-05-20T16:22:00.691Z,23.70
2019-05-20T16:24:51.335Z,23.30
2019-05-20T16:27:41.139Z,22.80
2019-05-20T16:30:32.078Z,22.40
2019-05-20T16:33:22.341Z,22.10
2019-05-20T16:36:12.970Z,21.60
2019-05-20T16:39:03.379Z,21.40
2019-05-20T16:41:54.501Z,21.10
2019-05-20T16:44:44.683Z,20.80
2019-05-20T16:47:34.509Z,20.60
2019-05-20T16:50:24.170Z,20.60
2019-05-20T16:53:14.306Z,20.60
2019-05-20T16:56:04.291Z,20.50
2019-05-20T16:58:54.611Z,20.40
2019-05-20T17:01:46.526Z,20.20
2019-05-20T17:04:36.655Z,20.00
2019-05-20T17:07:26.595Z,19.60
2019-05-20T17:10:17.666Z,19.40
2019-05-20T17:13:08.231Z,19.10
2019-05-20T17:15:57.695Z,18.90
2019-05-20T17:18:47.193Z,18.60
2019-05-20T17:21:36.653Z,18.30
2019-05-20T17:24:26.943Z,18.00
2019-05-20T17:27:17.086Z,17.70
2019-05-20T17:30:09.352Z,17.50
2019-05-20T17:33:00.226Z,17.40
2019-05-20T17:35:50.905Z,17.20
2019-05-20T17:38:42.306Z,17.10
2019-05-20T17:41:32.569Z,17.00
2019-05-20T17:44:22.965Z,16.80
2019-05-20T17:47:13.071Z,16.70
2019-05-20T17:50:03.594Z,16.60
2019-05-20T17:52:54.135Z,16.50
2019-05-20T17:55:44.691Z,16.40
2019-05-20T17:58:37.258Z,16.30
2019-05-20T18:01:26.151Z,16.20
2019-05-20T18:04:15.858Z,16.00
2019-05-20T18:07:06.006Z,15.90
2019-05-20T18:09:55.997Z,15.80
2019-05-20T18:12:47.308Z,15.70
2019-05-20T18:15:37.142Z,15.50
2019-05-20T18:18:26.795Z,15.40
2019-05-20T18:21:16.556Z,15.20
2019-05-20T18:24:06.594Z,15.10
2019-05-20T18:26:56.810Z,15.00
2019-05-20T18:29:47.236Z,14.90
2019-05-20T18:32:38.588Z,14.70
2019-05-20T18:35:29.124Z,14.60
2019-05-20T18:38:19.781Z,14.50
2019-05-20T18:41:10.795Z,14.40
2019-05-20T18:44:01.346Z,14.30
2019-05-20T18:46:52.882Z,14.20
2019-05-20T18:49:43.114Z,14.10
2019-05-20T18:52:34.396Z,14.00
2019-05-20T18:55:25.759Z,13.90
2019-05-20T18:58:16.352Z,13.80
2019-05-20T19:01:06.311Z,13.70
2019-05-20T19:04:06.624Z,13.70
2019-05-20T19:06:59.956Z,13.50
2019-05-20T19:09:58.196Z,13.50
2019-05-20T19:12:57.301Z,13.40
2019-05-20T19:15:49.671Z,13.30
2019-05-20T19:18:40.560Z,13.20
2019-05-20T19:21:30.935Z,13.20
2019-05-20T19:24:23.123Z,13.10
2019-05-20T19:27:16.887Z,13.10
2019-05-20T19:30:12.412Z,13.00
2019-05-20T19:33:03.541Z,13.00
2019-05-20T19:35:54.287Z,13.00
2019-05-20T19:38:45.956Z,13.00
2019-05-20T19:41:37.091Z,13.00
2019-05-20T19:44:27.270Z,13.00
2019-05-20T19:47:18.656Z,13.00
2019-05-20T19:50:10.627Z,13.00
2019-05-20T19:53:01.599Z,13.00
2019-05-20T19:55:51.427Z,12.90
2019-05-20T19:58:43.130Z,12.90
2019-05-20T20:01:33.886Z,12.80
2019-05-20T20:04:25.741Z,12.80
2019-05-20T20:07:19.880Z,12.70
2019-05-20T20:10:12.599Z,12.70
2019-05-20T20:13:04.011Z,12.60
2019-05-20T20:15:58.162Z,12.60
2019-05-20T20:18:51.821Z,12.50
2019-05-20T20:21:44.491Z,12.40
2019-05-20T20:24:39.938Z,12.40
2019-05-20T20:27:32.101Z,12.40
2019-05-20T20:30:22.471Z,12.30
2019-05-20T20:33:12.526Z,12.30
2019-05-20T20:36:03.626Z,12.30
2019-05-20T20:38:55.080Z,12.20
2019-05-20T20:41:45.037Z,12.20
2019-05-20T20:44:34.760Z,12.10
2019-05-20T20:47:24.491Z,12.10
2019-05-20T20:50:14.793Z,12.10
2019-05-20T20:53:05.040Z,12.10
2019-05-20T20:55:55.031Z,12.10
2019-05-20T20:58:44.582Z,12.00
2019-05-20T21:01:34.651Z,12.00
2019-05-20T21:04:24.715Z,12.00
2019-05-20T21:07:15.267Z,12.00
2019-05-20T21:10:08.239Z,11.90
2019-05-20T21:12:58.951Z,11.90
2019-05-20T21:15:50.461Z,11.80
2019-05-20T21:18:40.540Z,11.80
2019-05-20T21:21:31.610Z,11.70
2019-05-20T21:24:24.686Z,11.60
2019-05-20T21:27:16.646Z,11.60
2019-05-20T21:30:11.286Z,11.50
2019-05-20T21:33:09.247Z,11.40
2019-05-20T21:35:56.291Z,11.40
2019-05-20T21:38:47.445Z,11.30
2019-05-20T21:41:38.001Z,11.20
2019-05-20T21:44:32.921Z,11.10
2019-05-20T21:47:29.997Z,11.10
2019-05-20T21:50:20.880Z,11.00
2019-05-20T21:53:10.789Z,11.00
2019-05-20T21:56:01.421Z,10.90
2019-05-20T21:58:51.076Z,10.90
2019-05-20T22:01:41.286Z,10.90
2019-05-20T22:04:31.227Z,10.80
2019-05-20T22:07:21.037Z,10.80
2019-05-20T22:10:11.712Z,10.80
2019-05-20T22:13:01.838Z,10.80
2019-05-20T22:15:51.484Z,10.70
2019-05-20T22:18:41.576Z,10.70
2019-05-20T22:21:37.100Z,10.70
2019-05-20T22:24:26.568Z,10.70
2019-05-20T22:27:16.076Z,10.60
2019-05-20T22:30:08.178Z,10.60
2019-05-20T22:32:59.903Z,10.50
2019-05-20T22:35:50.040Z,10.50
2019-05-20T22:38:40.495Z,10.40
2019-05-20T22:41:31.901Z,10.40
2019-05-20T22:44:23.116Z,10.30
2019-05-20T22:47:12.924Z,10.30
2019-05-20T22:50:03.266Z,10.30
2019-05-20T22:52:52.975Z,10.20
2019-05-20T22:55:42.876Z,10.20
2019-05-20T22:58:32.457Z,10.10
2019-05-20T23:01:22.406Z,10.10
2019-05-20T23:04:12.141Z,10.10
2019-05-20T23:07:01.921Z,10.10
2019-05-20T23:09:52.076Z,10.00
2019-05-20T23:12:41.761Z,10.00
2019-05-20T23:15:31.991Z,10.00
2019-05-20T23:18:21.680Z,9.90
2019-05-20T23:21:11.865Z,9.90
2019-05-20T23:24:01.661Z,9.80
2019-05-20T23:26:52.006Z,9.80
2019-05-20T23:29:41.863Z,9.80
2019-05-20T23:32:32.046Z,9.70
2019-05-20T23:35:22.860Z,9.70
2019-05-20T23:38:12.705Z,9.60
2019-05-20T23:41:02.461Z,9.60
2019-05-20T23:43:52.245Z,9.60
2019-05-20T23:46:42.306Z,9.60
2019-05-20T23:49:32.675Z,9.60
2019-05-20T23:52:22.660Z,9.50
2019-05-20T23:55:12.446Z,9.50
2019-05-20T23:58:02.420Z,9.50
